Saturday, October 25, 2014
07:06 UTC
  |  Log In   |  Register Free
Airport Search:

Alpena County Regional Airport
(KAPN)

FAA data valid effective September 18, 2014 - November 13, 2014 (unless otherwise noted).

 
 
 
 
 
 
 
 
 
 
 
 
 
 

Current Aviation Weather for Alpena County Regional Airport (KAPN)

The most recent METAR observation for KAPN was updated at: 0609
METAR Summary (Translated METAR)
KAPN
250554Z AUTO 22004KT 7SM CLR 08/07 A2981 RMK AO2 SLP097 T00780072 10117 20028 58023
KPZQ
250445Z AUTO 19007KT 10SM CLR 08/08 A2983 RMK AO2
(22.5 nm NW from KAPN)
KOSC
250553Z AUTO 23005KT 4SM BR CLR 06/06 A2984 RMK AO2 T00650063
(38.3 nm SE from KAPN)
TAF Summary (Translated TAF)
KAPN
250548Z 2506/2606 21003KT P6SM MIFG SCT021 TEMPO 2506/2508 3/4SM BR SCT002 FM250900 22007KT P6SM OVC022 FM251100 25009KT P6SM OVC010 FM251430 28011G20KT P6SM SCT040 FM260000 29010G17KT P6SM SCT050
  Airport Weather Conditions for KAPN

 Current Weather at APN
46° F
Fair
Southwest winds at 4.6 mph
APN NOAA Radar

Pressure: 29.81 in
Humidity: 96%
Wind: Southwest at 4.6 MPH (4 KT)
Dew Point: 45.0°F
Visibility: 7.00 mi


Airport Weather Forecast for KAPN

Translated METAR and TAF for KAPN
Translated METAR for KAPN (0701 UTC 25 October 2014)
found at http://aviationweather.gov/adds/metars/
 
METAR text: KAPN 250654Z AUTO 20005KT 7SM BKN060 08/07 A2979 RMK AO2 SLP090 T00780067
Conditions at: KAPN (ALPENA , MI, US) observed 0654 UTC 25 October 2014
Temperature: 7.8°C (46°F)
Dewpoint: 6.7°C (44°F) [RH = 93%]
Pressure (altimeter): 29.79 inches Hg (1008.9 mb)
[Sea-level pressure: 1009.0 mb]
Winds: from the SSW (200 degrees) at 6 MPH (5 knots; 2.6 m/s)
Visibility: 7 miles (11 km)
Ceiling: 6000 feet AGL
Clouds: broken clouds at 6000 feet AGL
Weather: automated observation with no human augmentation;
there may or may not be significant weather present at this time
Translated TAF for KAPN
Forecast for: KAPN (ALPENA , MI, US)
TAF Text: KAPN 250548Z 2506/2606 21003KT P6SM MIFG SCT021
Forecast period: 0600 to 0900 UTC 25 October 2014
Forecast type: FROM: standard forecast or significant change
Winds: from the SSW (210 degrees) at 3 MPH (3 knots; 1.6 m/s)
Visibility: 6 or more miles (10+ km)
Clouds: scattered clouds at 2100 feet AGL
Weather: MIFG  (shallow fog)
TAF Text: TEMPO 2506/2508 3/4SM BR SCT002
Forecast period: 0600 to 0800 UTC 25 October 2014
Forecast type: TEMPORARY: The following changes expected for less than half the time period
Visibility: 0.75 miles (1.21 km)
Clouds: scattered clouds at 200 feet AGL
Weather: BR  (mist)
TAF Text: FM250900 22007KT P6SM OVC022
Forecast period: 0900 to 1100 UTC 25 October 2014
Forecast type: FROM: standard forecast or significant change
Winds: from the SW (220 degrees) at 8 MPH (7 knots; 3.6 m/s)
Visibility: 6 or more miles (10+ km)
Ceiling: 2200 feet AGL
Clouds: overcast cloud deck at 2200 feet AGL
Weather: no significant weather forecast for this period
TAF Text: FM251100 25009KT P6SM OVC010
Forecast period: 1100 to 1430 UTC 25 October 2014
Forecast type: FROM: standard forecast or significant change
Winds: from the WSW (250 degrees) at 10 MPH (9 knots; 4.7 m/s)
Visibility: 6 or more miles (10+ km)
Ceiling: 1000 feet AGL
Clouds: overcast cloud deck at 1000 feet AGL
Weather: no significant weather forecast for this period
TAF Text: FM251430 28011G20KT P6SM SCT040
Forecast period: 1430 UTC 25 October 2014 to 0000 UTC 26 October 2014
Forecast type: FROM: standard forecast or significant change
Winds: from the W (280 degrees) at 13 MPH (11 knots; 5.7 m/s)
gusting to 23 MPH (20 knots; 10.4 m/s)
Visibility: 6 or more miles (10+ km)
Clouds: scattered clouds at 4000 feet AGL
Weather: no significant weather forecast for this period
TAF Text: FM260000 29010G17KT P6SM SCT050
Forecast period: 0000 to 0600 UTC 26 October 2014
Forecast type: FROM: standard forecast or significant change
Winds: from the WNW (290 degrees) at 12 MPH (10 knots; 5.2 m/s)
gusting to 20 MPH (17 knots; 8.8 m/s)
Visibility: 6 or more miles (10+ km)
Clouds: scattered clouds at 5000 feet AGL
Weather: no significant weather forecast for this period

Find All Airport Services Find A Hotel Find A Rental Car Find A Golf Course Find A Restaurant $100 Hamburger



FBO's on the Field
FBO Company Facility Photos Services Transportation Aviation Fuel Prices: Prices include tax
Catering Weather Repair Courtesy Rental Type 100LL JetA JetA+ MOGAS 8087
 
Aviation Express Inc.

This FBO has not yet been rated
FS:Shell
Last Updated: Oct-16
Login to update fuel prices
SS:
Contact Aviation Express Inc.More FBO Information
 
Aviation North

This FBO has not yet been rated
FS:Avfuel
Last Updated: Oct-06
Login to update fuel prices
SS:
Contact Aviation NorthMore FBO Information
 
Add another FBO Facility Photos Catering Weather Repair Courtesy Rental Type 100LL JetA JetA+ MOGAS 8087
Services Transportation Aviation Fuel Prices: Prices include tax


model-print
model-print
model-print
model-print